createdAt,value
2023-03-08T00:04:00.594Z,8.80
2023-03-08T00:09:03.017Z,8.20
2023-03-08T00:14:04.954Z,8.68
2023-03-08T00:19:06.881Z,8.70
2023-03-08T00:24:08.731Z,8.25
2023-03-08T00:29:10.736Z,9.03
2023-03-08T00:34:12.496Z,7.80
2023-03-08T00:39:16.564Z,8.35
2023-03-08T00:44:18.332Z,8.53
2023-03-08T00:49:20.190Z,7.80
2023-03-08T00:54:21.930Z,8.38
2023-03-08T00:59:23.781Z,8.40
2023-03-08T01:04:25.880Z,7.90
2023-03-08T01:09:40.337Z,7.43
2023-03-08T01:14:52.710Z,7.78
2023-03-08T01:24:59.323Z,7.47
2023-03-08T01:30:04.020Z,7.68
2023-03-08T01:35:06.340Z,7.80
2023-03-08T01:40:10.879Z,8.10
2023-03-08T01:45:50.643Z,7.35
2023-03-08T01:50:53.049Z,8.35
2023-03-08T01:55:55.474Z,8.90
2023-03-08T02:00:57.755Z,7.38
2023-03-08T02:05:59.694Z,8.27
2023-03-08T02:11:01.848Z,8.25
2023-03-08T02:16:07.919Z,8.03
2023-03-08T02:21:09.943Z,8.15
2023-03-08T02:26:11.952Z,8.40
2023-03-08T02:31:14.747Z,8.57
2023-03-08T02:41:18.071Z,8.35
2023-03-08T02:46:19.885Z,7.93
2023-03-08T02:51:21.716Z,8.20
2023-03-08T02:56:23.640Z,7.88
2023-03-08T03:01:25.836Z,8.05
2023-03-08T03:06:27.737Z,8.20
2023-03-08T03:11:31.463Z,8.18
2023-03-08T03:16:33.809Z,7.97
2023-03-08T03:21:35.727Z,8.48
2023-03-08T03:26:37.543Z,8.37
2023-03-08T03:31:39.342Z,7.57
2023-03-08T03:36:41.124Z,7.73
2023-03-08T03:41:42.864Z,7.70
2023-03-08T03:46:47.595Z,7.75
2023-03-08T03:51:52.708Z,8.20
2023-03-08T03:57:00.319Z,8.65
2023-03-08T04:02:06.273Z,8.43
2023-03-08T04:07:13.801Z,8.68
2023-03-08T04:12:23.327Z,8.48
2023-03-08T04:17:25.481Z,8.13
2023-03-08T04:22:29.379Z,8.63
2023-03-08T04:27:39.718Z,8.80
2023-03-08T04:32:42.513Z,9.52
2023-03-08T04:37:46.818Z,9.15
2023-03-08T04:42:50.779Z,10.00
2023-03-08T04:47:58.183Z,9.75
2023-03-08T04:53:00.053Z,9.95
2023-03-08T04:58:03.455Z,9.95
2023-03-08T05:03:07.007Z,10.20
2023-03-08T05:08:08.997Z,9.93
2023-03-08T05:13:12.216Z,10.07
2023-03-08T05:18:14.682Z,10.55
2023-03-08T05:23:16.621Z,10.43
2023-03-08T05:28:20.255Z,10.48
2023-03-08T05:33:21.951Z,10.35
2023-03-08T05:43:27.994Z,11.35
2023-03-08T05:48:31.553Z,11.32
2023-03-08T05:53:33.778Z,11.10
2023-03-08T05:58:37.384Z,10.93
2023-03-08T06:03:40.379Z,11.60
2023-03-08T06:08:42.527Z,12.38
2023-03-08T06:13:45.292Z,8.70
2023-03-08T06:18:48.069Z,11.82
2023-03-08T06:23:51.949Z,12.30
2023-03-08T06:28:54.386Z,11.80
2023-03-08T06:33:58.173Z,11.48
2023-03-08T06:39:02.722Z,11.05
2023-03-08T06:44:06.431Z,10.75
2023-03-08T06:49:09.172Z,10.82
2023-03-08T06:54:17.351Z,11.15
2023-03-08T06:59:20.822Z,11.52
2023-03-08T07:04:22.539Z,11.90
2023-03-08T07:09:24.199Z,12.27
2023-03-08T07:14:26.663Z,12.55
2023-03-08T07:19:28.355Z,13.15
2023-03-08T07:24:30.119Z,14.10
2023-03-08T07:29:32.236Z,14.40
2023-03-08T07:34:34.072Z,13.20
2023-03-08T07:39:35.856Z,12.82
2023-03-08T07:44:37.940Z,13.10
2023-03-08T07:49:39.628Z,12.47
2023-03-08T07:54:42.111Z,13.23
2023-03-08T07:59:43.791Z,13.07
2023-03-08T08:04:45.653Z,15.52
2023-03-08T08:09:47.427Z,13.57
2023-03-08T08:19:55.099Z,12.70
2023-03-08T08:24:56.889Z,12.82
2023-03-08T08:29:59.386Z,12.93
2023-03-08T08:35:01.072Z,13.48
2023-03-08T08:40:04.082Z,13.02
2023-03-08T08:45:06.440Z,13.85
2023-03-08T08:50:08.914Z,13.18
2023-03-08T08:55:10.670Z,14.38
2023-03-08T09:00:13.035Z,15.30
2023-03-08T09:05:14.800Z,21.17
2023-03-08T09:10:16.875Z,14.45
2023-03-08T09:15:18.676Z,15.20
2023-03-08T09:20:23.195Z,14.65
2023-03-08T09:25:25.341Z,13.90
2023-03-08T09:30:27.136Z,14.38
2023-03-08T09:35:28.936Z,15.15
2023-03-08T09:40:33.643Z,15.00
2023-03-08T09:45:35.898Z,15.00
2023-03-08T09:50:44.613Z,14.95
2023-03-08T09:55:51.851Z,14.52
2023-03-08T10:00:57.195Z,14.85
2023-03-08T10:06:11.708Z,15.20
2023-03-08T10:11:21.178Z,15.60
2023-03-08T10:16:24.932Z,17.20
2023-03-08T10:21:29.442Z,20.08
2023-03-08T10:26:31.321Z,17.98
2023-03-08T10:31:33.812Z,17.23
2023-03-08T10:36:47.778Z,18.13
2023-03-08T10:41:53.248Z,22.52
2023-03-08T10:46:54.889Z,20.85
2023-03-08T10:52:00.969Z,22.70
2023-03-08T10:57:03.094Z,29.60
2023-03-08T11:02:13.805Z,21.90
2023-03-08T11:07:29.092Z,19.02
2023-03-08T11:12:30.775Z,18.02
2023-03-08T11:17:39.456Z,19.20
2023-03-08T11:22:58.605Z,17.35
2023-03-08T11:28:16.721Z,18.48
2023-03-08T11:33:45.548Z,16.02
2023-03-08T11:38:56.831Z,17.88
2023-03-08T11:44:24.134Z,15.25
2023-03-08T11:49:34.776Z,13.38
2023-03-08T11:55:02.436Z,14.38
2023-03-08T12:00:23.085Z,12.80
2023-03-08T12:05:30.442Z,13.90
2023-03-08T12:11:04.766Z,12.00
2023-03-08T12:16:23.168Z,33.20
2023-03-08T12:21:29.934Z,10.23
2023-03-08T12:26:54.686Z,10.10
2023-03-08T12:31:57.227Z,9.70
2023-03-08T12:36:59.029Z,9.80
2023-03-08T12:42:09.862Z,9.32
2023-03-08T12:47:11.683Z,8.90
2023-03-08T12:52:19.635Z,8.52
2023-03-08T12:57:24.603Z,8.82
2023-03-08T13:02:31.032Z,8.85
2023-03-08T13:07:40.061Z,8.98
2023-03-08T13:13:09.615Z,8.75
2023-03-08T13:18:17.558Z,9.15
2023-03-08T13:23:58.708Z,8.48
2023-03-08T13:29:00.880Z,8.88
2023-03-08T13:34:02.652Z,7.20
2023-03-08T13:39:18.691Z,9.07
2023-03-08T13:44:25.812Z,8.25
2023-03-08T13:49:32.489Z,5.57
2023-03-08T13:54:37.311Z,4.57
2023-03-08T13:59:54.647Z,4.07
2023-03-08T14:04:58.694Z,3.75
2023-03-08T14:10:01.232Z,3.58
2023-03-08T14:15:05.652Z,3.10
2023-03-08T14:20:20.892Z,3.17
2023-03-08T14:25:26.229Z,3.10
2023-03-08T14:30:30.527Z,2.70
2023-03-08T14:35:38.561Z,2.95
2023-03-08T14:40:49.252Z,3.20
2023-03-08T14:45:58.287Z,2.53
2023-03-08T14:51:02.257Z,2.15
2023-03-08T14:56:16.874Z,2.20
2023-03-08T15:01:34.327Z,2.30
2023-03-08T15:06:39.365Z,2.50
2023-03-08T15:11:41.468Z,1.83
2023-03-08T15:16:43.249Z,1.93
2023-03-08T15:21:45.286Z,2.00
2023-03-08T15:26:47.051Z,2.08
2023-03-08T15:31:48.857Z,1.67
2023-03-08T15:36:51.923Z,1.70
2023-03-08T15:46:56.141Z,1.50
2023-03-08T15:51:57.862Z,1.70
2023-03-08T15:56:59.738Z,1.73
2023-03-08T16:02:02.390Z,1.40
2023-03-08T16:07:04.390Z,1.40
2023-03-08T16:12:06.498Z,1.33
2023-03-08T16:17:09.053Z,1.40
2023-03-08T16:22:11.159Z,1.30
2023-03-08T16:27:12.941Z,1.20
2023-03-08T16:32:18.555Z,1.20
2023-03-08T16:37:21.239Z,1.52
2023-03-08T16:42:23.045Z,1.15
2023-03-08T16:47:26.609Z,1.33
2023-03-08T16:52:29.086Z,17.92
2023-03-08T16:57:30.876Z,1.42
2023-03-08T17:02:32.668Z,1.30
2023-03-08T17:07:34.615Z,1.50
2023-03-08T17:12:36.363Z,1.70
2023-03-08T17:17:39.701Z,1.80
2023-03-08T17:22:42.607Z,2.00
2023-03-08T17:27:44.344Z,2.00
2023-03-08T17:32:47.451Z,1.58
2023-03-08T17:37:50.088Z,1.97
2023-03-08T17:48:00.609Z,1.80
2023-03-08T17:53:02.873Z,1.90
2023-03-08T17:58:04.527Z,1.90
2023-03-08T18:03:06.324Z,1.70
2023-03-08T18:08:07.941Z,2.15
2023-03-08T18:13:10.289Z,2.28
2023-03-08T18:18:11.908Z,1.73
2023-03-08T18:23:13.612Z,1.20
2023-03-08T18:28:23.557Z,0.95
2023-03-08T18:33:28.387Z,0.90
2023-03-08T18:38:30.071Z,0.88
2023-03-08T18:43:32.809Z,1.00
2023-03-08T18:53:37.110Z,1.50
2023-03-08T18:58:38.886Z,1.50
2023-03-08T19:03:41.742Z,1.70
2023-03-08T19:08:43.755Z,1.70
2023-03-08T19:13:46.790Z,1.45
2023-03-08T19:18:50.382Z,2.30
2023-03-08T19:23:52.422Z,2.00
2023-03-08T19:28:54.241Z,1.97
2023-03-08T19:33:56.577Z,2.28
2023-03-08T19:38:59.840Z,2.30
2023-03-08T19:44:06.929Z,2.35
2023-03-08T19:49:12.864Z,2.25
2023-03-08T19:54:14.868Z,1.80
2023-03-08T19:59:17.346Z,2.17
2023-03-08T20:04:19.969Z,1.85
2023-03-08T20:09:22.474Z,1.70
2023-03-08T20:14:24.719Z,1.60
2023-03-08T20:24:29.412Z,1.40
2023-03-08T20:29:31.121Z,1.20
2023-03-08T20:34:33.417Z,1.20
2023-03-08T20:39:35.064Z,1.00
2023-03-08T20:44:36.792Z,1.10
2023-03-08T20:49:40.182Z,1.00
2023-03-08T20:54:42.424Z,1.15
2023-03-08T20:59:44.295Z,1.23
2023-03-08T21:04:46.055Z,1.20
2023-03-08T21:09:47.994Z,1.17
2023-03-08T21:14:53.930Z,1.58
2023-03-08T21:19:56.099Z,1.60
2023-03-08T21:24:57.862Z,1.63
2023-03-08T21:30:00.409Z,1.83
2023-03-08T21:35:02.470Z,1.40
2023-03-08T21:40:07.155Z,1.60
2023-03-08T21:45:09.434Z,2.13
2023-03-08T21:50:11.748Z,1.83
2023-03-08T21:55:13.445Z,1.60
2023-03-08T22:00:18.271Z,1.60
2023-03-08T22:05:20.037Z,1.90
2023-03-08T22:10:21.922Z,2.00
2023-03-08T22:15:23.621Z,2.50
2023-03-08T22:20:27.460Z,2.40
2023-03-08T22:25:29.192Z,2.72
2023-03-08T22:30:31.038Z,2.55
2023-03-08T22:35:32.755Z,1.70
2023-03-08T22:40:38.248Z,1.65
2023-03-08T22:45:40.007Z,1.77
2023-03-08T22:50:41.975Z,2.03
2023-03-08T22:55:47.668Z,2.25
2023-03-08T23:00:49.732Z,2.58
2023-03-08T23:05:53.168Z,2.90
2023-03-08T23:10:55.166Z,2.63
2023-03-08T23:15:56.855Z,3.13
2023-03-08T23:21:06.566Z,3.17
2023-03-08T23:26:12.131Z,3.15
2023-03-08T23:31:15.276Z,3.63
2023-03-08T23:36:20.104Z,3.47
2023-03-08T23:41:22.180Z,3.95
2023-03-08T23:46:25.068Z,4.03
2023-03-08T23:56:38.492Z,3.65
